Time;durP1;ratioP1;P1;durP2;ratioP2;P2;SDS_P1;SDS_P2;PMS_P1;PMS_P2;Temp;Humidity;BMP_temperature;BMP_pressure;BME280_temperature;BME280_humidity;BME280_pressure;Samples;Min_cycle;Max_cycle;Signal;HPM_P1;HPM_P2
2021/03/06 00:01:00;;;;;;;1.77;1.33;;;9.20;99.90;;;;;;5068571;28;20379;-38
2021/03/06 00:03:31;;;;;;;1.20;1.10;;;9.20;99.90;;;;;;5067157;28;20195;-40
2021/03/06 00:06:01;;;;;;;1.77;1.40;;;9.20;99.90;;;;;;5073111;28;20202;-39
2021/03/06 00:08:32;;;;;;;1.63;1.30;;;9.20;99.90;;;;;;5080746;28;20674;-40
2021/03/06 00:11:03;;;;;;;1.90;1.50;;;9.20;99.90;;;;;;5070745;28;20236;-39
2021/03/06 00:13:36;;;;;;;4.30;1.50;;;9.20;99.90;;;;;;5066990;28;20203;-39
2021/03/06 00:16:07;;;;;;;3.63;1.60;;;9.20;99.90;;;;;;5068366;28;20389;-39
2021/03/06 00:18:38;;;;;;;3.72;2.00;;;9.20;99.90;;;;;;5073978;28;20204;-38
2021/03/06 00:21:08;;;;;;;2.13;1.98;;;9.10;99.90;;;;;;5064866;28;20722;-38
2021/03/06 00:23:49;;;;;;;2.95;2.67;;;8.90;99.90;;;;;;5083056;28;20230;-38
2021/03/06 00:26:19;;;;;;;3.53;2.30;;;8.80;99.90;;;;;;5070584;28;20209;-38
2021/03/06 00:28:50;;;;;;;2.35;1.85;;;8.70;99.90;;;;;;5065820;28;20224;-38
2021/03/06 00:31:20;;;;;;;4.00;2.75;;;8.60;99.90;;;;;;5066270;28;20192;-36
2021/03/06 00:33:51;;;;;;;2.42;2.22;;;8.50;99.90;;;;;;5076652;28;20267;-38
2021/03/06 00:36:21;;;;;;;2.97;2.60;;;8.40;99.90;;;;;;5078414;28;20209;-37
2021/03/06 00:38:55;;;;;;;2.63;2.42;;;8.30;99.90;;;;;;5082200;28;20299;-37
2021/03/06 00:41:25;;;;;;;4.63;2.78;;;8.30;99.90;;;;;;5082642;28;20639;-37
2021/03/06 00:43:55;;;;;;;3.30;3.00;;;8.30;99.90;;;;;;5072269;28;20206;-38
2021/03/06 00:46:25;;;;;;;5.43;3.67;;;8.30;99.90;;;;;;5077942;28;20189;-36
2021/03/06 00:48:55;;;;;;;5.93;3.70;;;8.30;99.90;;;;;;5082378;28;20205;-36
2021/03/06 00:51:25;;;;;;;4.50;4.05;;;8.20;99.90;;;;;;5082509;28;20198;-37
2021/03/06 00:54:10;;;;;;;4.60;3.70;;;8.20;99.90;;;;;;5070702;28;20265;-36
2021/03/06 00:56:40;;;;;;;3.83;3.13;;;8.20;99.90;;;;;;5062455;28;20228;-37
2021/03/06 00:59:10;;;;;;;3.70;3.40;;;8.30;99.90;;;;;;5062589;28;20222;-36
2021/03/06 01:01:40;;;;;;;3.38;3.08;;;8.20;99.90;;;;;;5066630;28;20216;-37
2021/03/06 01:04:10;;;;;;;5.63;3.40;;;8.20;99.90;;;;;;5062999;28;20200;-37
2021/03/06 01:06:40;;;;;;;3.63;3.33;;;8.30;99.90;;;;;;5065154;28;20201;-37
2021/03/06 01:09:11;;;;;;;6.75;3.90;;;8.30;99.90;;;;;;5062549;28;20275;-37
2021/03/06 01:11:41;;;;;;;4.22;3.60;;;8.30;99.90;;;;;;5064623;28;20198;-37
2021/03/06 01:14:11;;;;;;;4.30;3.90;;;8.20;99.90;;;;;;5062836;28;20275;-37
2021/03/06 01:16:42;;;;;;;4.85;3.28;;;8.20;99.90;;;;;;5073543;28;20260;-36
2021/03/06 01:19:12;;;;;;;3.85;3.55;;;8.20;99.90;;;;;;5071859;28;20217;-37
2021/03/06 01:21:42;;;;;;;4.05;3.65;;;8.20;99.90;;;;;;5080097;28;20300;-37
2021/03/06 01:24:33;;;;;;;3.60;3.30;;;8.20;99.90;;;;;;5080971;28;20289;-38
2021/03/06 01:27:04;;;;;;;3.72;2.83;;;8.20;99.90;;;;;;5075557;28;20202;-37
2021/03/06 01:29:34;;;;;;;4.18;3.88;;;8.20;99.90;;;;;;5068456;28;20232;-37
2021/03/06 01:32:04;;;;;;;6.03;3.42;;;8.20;99.90;;;;;;5078963;28;20211;-37
2021/03/06 01:34:35;;;;;;;3.40;3.00;;;8.10;99.90;;;;;;5072526;28;20258;-37
2021/03/06 01:37:05;;;;;;;6.28;3.65;;;8.10;99.90;;;;;;5075889;28;20213;-37
2021/03/06 01:39:36;;;;;;;3.83;3.47;;;8.10;99.90;;;;;;5065601;28;20233;-37
2021/03/06 01:42:07;;;;;;;3.80;2.78;;;8.10;99.90;;;;;;5078902;28;20186;-38
2021/03/06 01:44:38;;;;;;;3.60;3.30;;;8.10;99.90;;;;;;5075508;28;20540;-37
2021/03/06 01:47:08;;;;;;;3.25;2.97;;;8.10;99.90;;;;;;5066014;28;20224;-38
2021/03/06 01:49:39;;;;;;;4.93;3.47;;;8.20;99.90;;;;;;5070110;28;20210;-37
2021/03/06 01:52:09;;;;;;;4.38;3.63;;;8.10;99.90;;;;;;5070577;28;20256;-38
2021/03/06 01:54:45;;;;;;;5.43;4.13;;;8.10;99.90;;;;;;5081952;28;20205;-38
2021/03/06 01:57:16;;;;;;;3.83;3.28;;;8.10;99.90;;;;;;5068495;28;20182;-37
2021/03/06 01:59:46;;;;;;;3.63;3.28;;;8.00;99.90;;;;;;5065161;28;20253;-38
2021/03/06 02:02:17;;;;;;;4.00;3.60;;;8.00;99.90;;;;;;5074209;28;20233;-37
2021/03/06 02:04:47;;;;;;;3.08;2.85;;;8.00;99.90;;;;;;5078160;28;20205;-38
2021/03/06 02:07:17;;;;;;;4.47;4.05;;;8.00;99.90;;;;;;5078585;28;20198;-38
2021/03/06 02:09:49;;;;;;;4.88;4.45;;;8.00;99.90;;;;;;5075477;28;20221;-39
2021/03/06 02:12:26;;;;;;;4.65;4.25;;;8.00;99.90;;;;;;5085625;28;20194;-39
2021/03/06 02:15:17;;;;;;;3.40;3.10;;;8.00;99.90;;;;;;5066283;28;20209;-40
2021/03/06 02:17:53;;;;;;;3.70;3.40;;;8.00;99.90;;;;;;5066024;28;20696;-39
2021/03/06 02:20:48;;;;;;;3.92;3.50;;;8.00;99.90;;;;;;5079903;28;20324;-39
2021/03/06 02:23:51;;;;;;;3.40;3.20;;;8.00;99.90;;;;;;5066579;28;20286;-39
2021/03/06 02:27:04;;;;;;;4.28;3.88;;;8.00;99.90;;;;;;5069594;28;20203;-40
2021/03/06 02:29:46;;;;;;;3.83;3.53;;;8.00;99.90;;;;;;5056712;28;20264;-39
2021/03/06 02:32:21;;;;;;;4.50;4.10;;;8.00;99.90;;;;;;5065267;28;20221;-40
2021/03/06 02:35:04;;;;;;;4.35;4.05;;;8.00;99.90;;;;;;5065437;28;20532;-40
2021/03/06 02:37:37;;;;;;;4.53;4.20;;;8.10;99.90;;;;;;5071268;28;20202;-40
2021/03/06 02:40:09;;;;;;;5.10;4.63;;;8.00;99.90;;;;;;5081496;28;20224;-39
2021/03/06 02:42:40;;;;;;;4.72;4.20;;;8.00;99.90;;;;;;5085143;28;20204;-39
2021/03/06 02:45:14;;;;;;;5.32;4.93;;;7.90;99.90;;;;;;5068144;28;20194;-40
2021/03/06 02:47:44;;;;;;;5.55;5.07;;;8.00;99.90;;;;;;5068181;28;20197;-39
2021/03/06 02:50:15;;;;;;;6.00;5.50;;;8.10;99.90;;;;;;5064192;28;20229;-39
2021/03/06 02:52:45;;;;;;;6.78;6.07;;;8.20;99.90;;;;;;5065062;28;20561;-40
2021/03/06 02:55:15;;;;;;;6.05;5.57;;;8.20;99.90;;;;;;5066512;28;20206;-38
2021/03/06 02:58:24;;;;;;;6.07;5.47;;;8.20;99.90;;;;;;5076759;28;20199;-37
2021/03/06 03:01:03;;;;;;;6.28;5.68;;;8.20;99.90;;;;;;5003758;28;20244;-39
2021/03/06 03:03:54;;;;;;;5.57;5.18;;;8.20;99.90;;;;;;5003069;28;20691;-38
2021/03/06 03:06:29;;;;;;;5.57;5.07;;;8.20;99.90;;;;;;4991500;28;20216;-39
2021/03/06 03:09:08;;;;;;;7.07;6.13;;;8.20;99.90;;;;;;4986066;28;20218;-39
2021/03/06 03:11:48;;;;;;;6.72;6.13;;;8.20;99.90;;;;;;4997901;28;20343;-42
2021/03/06 03:14:23;;;;;;;8.68;6.72;;;8.30;99.90;;;;;;5003483;28;20200;-41
2021/03/06 03:17:01;;;;;;;6.95;6.30;;;8.10;99.90;;;;;;5011677;28;20296;-42
2021/03/06 03:19:34;;;;;;;6.35;5.85;;;8.10;99.90;;;;;;4998693;28;20228;-40
2021/03/06 03:22:07;;;;;;;7.05;6.45;;;8.10;99.90;;;;;;5001828;28;20211;-41
2021/03/06 03:24:40;;;;;;;6.85;6.15;;;8.20;99.90;;;;;;4992331;28;20592;-40
2021/03/06 03:27:12;;;;;;;7.00;6.40;;;8.10;99.90;;;;;;5000951;28;20204;-40
2021/03/06 03:29:43;;;;;;;8.18;7.47;;;8.00;99.90;;;;;;5006123;28;20282;-40
2021/03/06 03:32:15;;;;;;;7.82;6.95;;;8.00;99.90;;;;;;4997434;28;20204;-43
2021/03/06 03:34:49;;;;;;;8.23;7.50;;;8.00;99.90;;;;;;5021286;28;20288;-40
2021/03/06 03:37:20;;;;;;;8.65;7.85;;;8.00;99.90;;;;;;5073754;28;20532;-41
2021/03/06 03:39:51;;;;;;;7.40;6.70;;;8.00;99.90;;;;;;5064073;28;20218;-40
2021/03/06 03:42:22;;;;;;;7.55;6.88;;;8.00;99.90;;;;;;5063477;28;20201;-44
2021/03/06 03:44:53;;;;;;;7.15;6.40;;;7.90;99.90;;;;;;5063545;28;20205;-42
2021/03/06 03:47:25;;;;;;;7.30;6.70;;;7.90;99.90;;;;;;5066879;28;20221;-41
2021/03/06 03:49:55;;;;;;;7.82;7.03;;;7.90;99.90;;;;;;5063782;28;20202;-42
2021/03/06 03:52:26;;;;;;;7.22;6.60;;;8.00;99.90;;;;;;5063282;28;20194;-43
2021/03/06 03:54:56;;;;;;;7.57;6.88;;;7.90;99.90;;;;;;5065249;28;20194;-42
2021/03/06 03:57:26;;;;;;;8.70;7.75;;;7.90;99.90;;;;;;5072487;28;20206;-41
2021/03/06 03:59:56;;;;;;;8.40;7.57;;;7.90;99.90;;;;;;5080406;28;20229;-43
2021/03/06 04:02:29;;;;;;;8.25;7.38;;;8.00;99.90;;;;;;5069778;28;20224;-40
2021/03/06 04:05:00;;;;;;;9.77;7.70;;;7.90;99.90;;;;;;5076004;28;20201;-41
2021/03/06 04:07:30;;;;;;;9.68;8.68;;;7.90;99.90;;;;;;5073457;28;20208;-40
2021/03/06 04:10:00;;;;;;;8.60;7.80;;;7.80;99.90;;;;;;5075489;28;20223;-39
2021/03/06 04:12:31;;;;;;;10.10;8.90;;;7.90;99.90;;;;;;5068497;28;20349;-41
2021/03/06 04:15:01;;;;;;;9.95;9.05;;;7.90;99.90;;;;;;5062880;28;20202;-39
2021/03/06 04:17:52;;;;;;;8.95;8.15;;;7.90;99.90;;;;;;5067485;28;20284;-39
2021/03/06 04:20:23;;;;;;;10.65;9.65;;;7.90;99.90;;;;;;5064959;28;20233;-40
2021/03/06 04:22:54;;;;;;;10.50;9.52;;;7.90;99.90;;;;;;5069495;28;20219;-40
2021/03/06 04:25:24;;;;;;;10.50;9.50;;;7.90;99.90;;;;;;5072037;28;20287;-39
2021/03/06 04:27:57;;;;;;;11.43;10.40;;;7.90;99.90;;;;;;5076527;28;20630;-40
2021/03/06 04:30:27;;;;;;;11.80;10.70;;;7.90;99.90;;;;;;5079244;28;20205;-39
2021/03/06 04:32:59;;;;;;;12.68;10.40;;;7.90;99.90;;;;;;5079908;28;20237;-40
2021/03/06 04:35:29;;;;;;;11.75;10.07;;;7.90;99.90;;;;;;5069401;28;20198;-39
2021/03/06 04:38:00;;;;;;;12.07;10.60;;;7.90;99.90;;;;;;5072900;28;20190;-39
2021/03/06 04:40:30;;;;;;;12.45;11.25;;;7.90;99.90;;;;;;5071636;28;20214;-40
2021/03/06 04:43:00;;;;;;;11.63;10.52;;;7.90;99.90;;;;;;5068262;28;20690;-39
2021/03/06 04:45:30;;;;;;;13.18;10.48;;;7.90;99.90;;;;;;5068087;28;20261;-40
2021/03/06 04:48:01;;;;;;;11.38;10.38;;;7.90;99.90;;;;;;5067777;28;20198;-39
2021/03/06 04:50:32;;;;;;;11.05;10.05;;;7.90;99.90;;;;;;5069934;28;20291;-39
2021/03/06 04:53:02;;;;;;;11.50;10.38;;;7.90;99.90;;;;;;5063376;28;20198;-39
2021/03/06 04:55:35;;;;;;;10.65;9.65;;;7.80;99.90;;;;;;5067664;28;20221;-39
2021/03/06 04:58:05;;;;;;;10.80;9.80;;;7.80;99.90;;;;;;5082466;28;20597;-38
2021/03/06 05:00:35;;;;;;;11.40;10.30;;;7.80;99.90;;;;;;5074627;28;20294;-39
2021/03/06 05:03:06;;;;;;;11.60;10.27;;;7.70;99.90;;;;;;5081632;28;20209;-39
2021/03/06 05:05:37;;;;;;;11.20;10.00;;;7.70;99.90;;;;;;5073823;28;20201;-40
2021/03/06 05:08:07;;;;;;;11.55;10.45;;;7.70;99.90;;;;;;5081547;28;20206;-40
2021/03/06 05:10:37;;;;;;;10.85;9.75;;;7.70;99.90;;;;;;5070935;28;20643;-39
2021/03/06 05:13:07;;;;;;;11.95;10.77;;;7.70;99.90;;;;;;5071157;28;20245;-39
2021/03/06 05:15:37;;;;;;;11.85;10.75;;;7.70;99.90;;;;;;5069747;28;20276;-39
2021/03/06 05:18:09;;;;;;;11.48;10.23;;;7.70;99.90;;;;;;5070734;28;20249;-38
2021/03/06 05:20:40;;;;;;;11.90;10.60;;;7.60;99.90;;;;;;5084112;28;20256;-38
2021/03/06 05:23:10;;;;;;;11.65;10.55;;;7.60;99.90;;;;;;5082482;28;20255;-39
2021/03/06 05:25:40;;;;;;;10.55;9.55;;;7.60;99.90;;;;;;5080472;28;20286;-39
2021/03/06 05:28:10;;;;;;;10.80;9.75;;;7.60;99.90;;;;;;5079529;28;20221;-39
2021/03/06 05:30:40;;;;;;;11.65;10.10;;;7.70;99.90;;;;;;5079915;28;20287;-40
2021/03/06 05:33:11;;;;;;;10.35;9.45;;;7.60;99.90;;;;;;5078984;28;20281;-39
2021/03/06 05:35:42;;;;;;;10.70;9.80;;;7.60;99.90;;;;;;5082704;28;20512;-37
2021/03/06 05:38:12;;;;;;;10.50;9.50;;;7.60;99.90;;;;;;5084754;28;20272;-40
2021/03/06 05:40:44;;;;;;;10.02;9.20;;;7.60;99.90;;;;;;5074518;28;20254;-39
2021/03/06 05:43:15;;;;;;;10.90;9.90;;;7.60;99.90;;;;;;5068631;28;20205;-40
2021/03/06 05:45:47;;;;;;;11.18;9.85;;;7.40;99.90;;;;;;5068845;28;20217;-39
2021/03/06 05:48:19;;;;;;;10.93;10.02;;;7.30;99.90;;;;;;5075222;28;20201;-39
2021/03/06 05:50:51;;;;;;;10.48;9.50;;;7.30;99.90;;;;;;5077278;28;20202;-38
2021/03/06 05:53:22;;;;;;;11.48;10.27;;;7.30;99.90;;;;;;5074521;28;20207;-39
2021/03/06 05:55:55;;;;;;;13.38;11.10;;;7.30;99.90;;;;;;5079903;28;20201;-39
2021/03/06 05:58:25;;;;;;;12.07;10.85;;;7.30;99.90;;;;;;5078493;28;20202;-38
2021/03/06 06:00:56;;;;;;;11.55;10.38;;;7.20;99.90;;;;;;5073919;28;20234;-39
2021/03/06 06:03:28;;;;;;;12.85;11.55;;;7.20;99.90;;;;;;5070129;28;20206;-39
2021/03/06 06:05:58;;;;;;;14.25;12.88;;;7.20;99.90;;;;;;5076922;28;20286;-39
2021/03/06 06:08:32;;;;;;;14.07;12.77;;;7.20;99.90;;;;;;5070243;28;20213;-39
2021/03/06 06:11:03;;;;;;;14.30;13.00;;;7.30;99.90;;;;;;5067852;28;20262;-39
2021/03/06 06:13:33;;;;;;;12.88;11.70;;;7.20;99.90;;;;;;5073193;28;20201;-39
2021/03/06 06:16:04;;;;;;;13.10;11.90;;;7.20;99.90;;;;;;5074843;28;21731;-39
2021/03/06 06:18:36;;;;;;;11.88;10.70;;;7.20;99.90;;;;;;5075219;28;20242;-39
2021/03/06 06:21:06;;;;;;;12.90;11.50;;;7.30;99.90;;;;;;5083494;28;20214;-39
2021/03/06 06:23:36;;;;;;;11.93;10.77;;;7.30;99.90;;;;;;5084531;28;20631;-38
2021/03/06 06:26:13;;;;;;;11.73;10.63;;;7.30;99.90;;;;;;5084549;28;20208;-39
2021/03/06 06:28:49;;;;;;;12.05;10.43;;;7.40;99.90;;;;;;5084074;28;20213;-39
2021/03/06 06:31:19;;;;;;;9.80;8.90;;;7.40;99.90;;;;;;5069872;28;20214;-39
2021/03/06 06:33:53;;;;;;;8.98;8.13;;;7.40;99.90;;;;;;5082076;28;20227;-38
2021/03/06 06:36:35;;;;;;;9.20;8.50;;;7.40;99.90;;;;;;5077910;28;20205;-39
2021/03/06 06:39:06;;;;;;;9.50;8.55;;;7.40;99.90;;;;;;5084380;28;20227;-39
2021/03/06 06:41:55;;;;;;;10.77;9.77;;;7.30;99.90;;;;;;5083969;28;20229;-39
2021/03/06 06:44:26;;;;;;;9.05;8.25;;;7.20;99.90;;;;;;5077892;28;20308;-39
2021/03/06 06:47:13;;;;;;;10.05;8.27;;;7.20;99.90;;;;;;5083084;28;20232;-39
2021/03/06 06:49:48;;;;;;;9.30;8.30;;;7.30;99.90;;;;;;5074392;28;20213;-39
2021/03/06 06:52:20;;;;;;;7.95;7.25;;;7.30;99.90;;;;;;5083143;28;20205;-39
2021/03/06 06:54:54;;;;;;;8.00;7.00;;;7.20;99.90;;;;;;5083586;28;20216;-38
2021/03/06 06:57:26;;;;;;;7.57;6.75;;;7.10;99.90;;;;;;5084085;28;20200;-39
2021/03/06 06:59:58;;;;;;;7.43;6.72;;;7.10;99.90;;;;;;5082351;28;20294;-39
2021/03/06 07:02:29;;;;;;;8.20;7.40;;;7.00;99.90;;;;;;5081045;28;20205;-39
2021/03/06 07:05:02;;;;;;;5.75;5.25;;;7.00;99.90;;;;;;5077801;28;20206;-39
2021/03/06 07:07:39;;;;;;;7.32;5.90;;;7.00;99.90;;;;;;5082441;28;20212;-39
2021/03/06 07:10:12;;;;;;;7.35;5.35;;;7.10;99.90;;;;;;5067917;28;20586;-39
2021/03/06 07:12:44;;;;;;;4.28;3.65;;;7.00;99.90;;;;;;5075847;28;20201;-39
2021/03/06 07:15:17;;;;;;;3.58;3.35;;;7.00;99.90;;;;;;5082270;28;20399;-39
2021/03/06 07:20:39;;;;;;;3.70;3.05;;;7.00;99.90;;;;;;5076267;28;20267;-38
2021/03/06 07:23:18;;;;;;;3.80;3.50;;;7.00;99.90;;;;;;5071479;28;20263;-39
2021/03/06 07:25:50;;;;;;;3.25;3.05;;;7.00;99.90;;;;;;5080278;28;20201;-39
2021/03/06 07:28:21;;;;;;;4.03;2.92;;;6.90;99.90;;;;;;5072778;28;20197;-39
2021/03/06 07:30:52;;;;;;;3.38;3.08;;;6.90;99.90;;;;;;5076830;28;20228;-39
2021/03/06 07:33:26;;;;;;;3.90;2.88;;;7.00;99.90;;;;;;5082148;28;20208;-39
2021/03/06 07:35:58;;;;;;;3.80;3.50;;;7.00;99.90;;;;;;5068126;28;20521;-38
2021/03/06 07:38:28;;;;;;;4.97;3.40;;;7.00;99.90;;;;;;5074645;28;20205;-40
2021/03/06 07:41:03;;;;;;;3.10;2.72;;;6.90;99.90;;;;;;5082742;28;20233;-39
2021/03/06 07:43:36;;;;;;;4.15;2.95;;;6.90;99.90;;;;;;5083453;28;20212;-39
2021/03/06 07:46:10;;;;;;;2.58;2.38;;;6.90;99.90;;;;;;5078300;28;20254;-39
2021/03/06 07:48:43;;;;;;;2.50;2.40;;;6.90;99.90;;;;;;5083158;28;20219;-38
2021/03/06 07:51:15;;;;;;;3.50;2.70;;;6.80;99.90;;;;;;5068026;28;20209;-38
2021/03/06 07:53:47;;;;;;;3.28;2.30;;;6.80;99.90;;;;;;5082730;28;20209;-39
2021/03/06 07:56:18;;;;;;;4.82;3.30;;;6.80;99.90;;;;;;5064476;28;20648;-38
2021/03/06 07:58:48;;;;;;;6.55;3.05;;;6.80;99.90;;;;;;5074986;28;20227;-39
2021/03/06 08:01:29;;;;;;;2.70;2.50;;;6.90;99.90;;;;;;5072982;28;20229;-38
2021/03/06 08:04:00;;;;;;;3.15;2.35;;;6.80;99.90;;;;;;5065330;28;20209;-38
2021/03/06 08:06:32;;;;;;;4.18;2.55;;;6.80;99.90;;;;;;5073343;28;20206;-38
2021/03/06 08:09:12;;;;;;;2.50;1.95;;;6.80;99.90;;;;;;5082648;28;20215;-38
2021/03/06 08:11:46;;;;;;;3.47;2.00;;;6.80;99.90;;;;;;5082029;28;20201;-38
2021/03/06 08:14:40;;;;;;;2.30;2.10;;;6.80;99.90;;;;;;5073456;28;20200;-38
2021/03/06 08:17:34;;;;;;;5.43;1.95;;;6.80;99.90;;;;;;5075312;28;20237;-37
2021/03/06 08:20:07;;;;;;;1.95;1.83;;;6.80;99.90;;;;;;5066304;28;20194;-38
2021/03/06 08:22:38;;;;;;;3.28;2.63;;;6.80;99.90;;;;;;5074388;28;20256;-39
2021/03/06 08:25:21;;;;;;;2.20;2.00;;;6.70;99.90;;;;;;5079579;28;20214;-38
2021/03/06 08:28:20;;;;;;;3.65;2.50;;;6.80;99.90;;;;;;5079937;28;20258;-38
2021/03/06 08:30:50;;;;;;;1.83;1.73;;;6.80;99.90;;;;;;5074689;28;20300;-38
2021/03/06 08:33:22;;;;;;;2.03;1.85;;;6.90;99.90;;;;;;5079631;28;20326;-38
2021/03/06 08:36:12;;;;;;;1.90;1.80;;;6.80;99.90;;;;;;5079767;28;20262;-38
2021/03/06 08:38:43;;;;;;;2.33;2.13;;;6.90;99.90;;;;;;5073942;28;20299;-38
2021/03/06 08:41:13;;;;;;;2.33;2.13;;;6.90;99.90;;;;;;5070467;28;20256;-38
2021/03/06 08:43:45;;;;;;;2.10;1.90;;;7.00;99.90;;;;;;5081117;28;20239;-38
2021/03/06 08:46:15;;;;;;;3.92;2.20;;;6.90;99.90;;;;;;5073249;28;20239;-38
2021/03/06 08:48:46;;;;;;;4.60;2.10;;;6.90;99.90;;;;;;5074577;28;20213;-38
2021/03/06 08:51:16;;;;;;;2.95;1.83;;;7.00;99.90;;;;;;5082292;28;20262;-38
2021/03/06 08:53:58;;;;;;;3.15;1.90;;;6.90;99.90;;;;;;5074171;28;20229;-38
2021/03/06 08:56:39;;;;;;;3.72;2.38;;;6.90;99.90;;;;;;5084531;28;20258;-38
2021/03/06 08:59:09;;;;;;;3.25;2.03;;;6.80;99.90;;;;;;5086127;28;20230;-39
2021/03/06 09:01:39;;;;;;;3.10;2.25;;;6.80;99.90;;;;;;5074552;28;20230;-38
2021/03/06 09:04:10;;;;;;;2.13;1.98;;;6.90;99.90;;;;;;5084177;28;20247;-38
2021/03/06 09:06:41;;;;;;;2.70;2.40;;;6.90;99.90;;;;;;5075326;28;20305;-38
2021/03/06 09:09:12;;;;;;;2.38;2.17;;;6.90;99.90;;;;;;5086474;28;20272;-38
2021/03/06 09:11:57;;;;;;;3.58;1.90;;;6.90;99.90;;;;;;5087223;28;20227;-39
2021/03/06 09:14:27;;;;;;;2.83;2.30;;;6.80;99.90;;;;;;5079036;28;20208;-39
2021/03/06 09:16:58;;;;;;;3.15;1.90;;;6.80;99.90;;;;;;5076698;28;20222;-39
2021/03/06 09:19:29;;;;;;;2.28;1.98;;;6.80;99.90;;;;;;5071204;28;20206;-39
2021/03/06 09:22:00;;;;;;;3.35;2.10;;;6.80;99.90;;;;;;5085248;28;20323;-39
2021/03/06 09:24:45;;;;;;;1.95;1.85;;;6.80;99.90;;;;;;5071857;28;20229;-38
2021/03/06 09:27:19;;;;;;;2.08;1.88;;;6.80;99.90;;;;;;5073923;28;20202;-39
2021/03/06 09:29:49;;;;;;;1.90;1.70;;;6.80;99.90;;;;;;5072272;28;20206;-38
2021/03/06 09:32:19;;;;;;;1.60;1.50;;;6.80;99.90;;;;;;5075077;28;20260;-39
2021/03/06 09:34:49;;;;;;;2.08;1.80;;;6.80;99.90;;;;;;5073400;28;20276;-38
2021/03/06 09:37:20;;;;;;;2.38;1.75;;;6.80;99.90;;;;;;5086746;28;20627;-39
2021/03/06 09:39:51;;;;;;;1.42;1.30;;;6.80;99.90;;;;;;5074540;28;20197;-39
2021/03/06 09:42:26;;;;;;;2.10;1.77;;;6.70;99.90;;;;;;5084825;28;20283;-38
2021/03/06 09:44:56;;;;;;;1.98;1.80;;;6.80;99.90;;;;;;5087827;28;20200;-38
2021/03/06 09:47:26;;;;;;;2.50;1.60;;;6.70;99.90;;;;;;5085593;28;20252;-38
2021/03/06 09:49:57;;;;;;;2.25;1.45;;;6.70;99.90;;;;;;5075013;28;20332;-38
2021/03/06 09:52:33;;;;;;;1.80;1.67;;;6.70;99.90;;;;;;5081059;28;20206;-39
2021/03/06 09:55:05;;;;;;;1.90;1.65;;;6.70;99.90;;;;;;5084379;28;20231;-38
2021/03/06 09:57:35;;;;;;;1.88;1.40;;;6.60;99.90;;;;;;5083854;28;20202;-38
2021/03/06 10:00:07;;;;;;;1.77;1.67;;;6.60;99.90;;;;;;5068694;28;20215;-38
2021/03/06 10:02:48;;;;;;;2.38;2.17;;;6.70;99.90;;;;;;5076083;28;20216;-38
2021/03/06 10:05:23;;;;;;;2.00;1.83;;;6.60;99.90;;;;;;5084256;28;20681;-39
2021/03/06 10:07:55;;;;;;;2.45;2.25;;;6.70;99.90;;;;;;5068597;28;20259;-38
2021/03/06 10:10:34;;;;;;;2.35;2.15;;;6.50;99.90;;;;;;5075587;28;20219;-38
2021/03/06 10:13:05;;;;;;;2.30;2.10;;;6.50;99.90;;;;;;5085431;28;20209;-38
2021/03/06 10:15:35;;;;;;;2.50;2.30;;;6.50;99.90;;;;;;5080567;28;20247;-38
2021/03/06 10:18:08;;;;;;;2.10;2.00;;;6.50;99.90;;;;;;5082985;28;20262;-38
2021/03/06 10:20:38;;;;;;;2.55;2.10;;;6.50;99.90;;;;;;5080408;28;20235;-39
2021/03/06 10:23:10;;;;;;;3.72;2.40;;;6.60;99.90;;;;;;5080853;28;20208;-38
2021/03/06 10:25:42;;;;;;;5.75;2.10;;;6.60;99.90;;;;;;5081225;28;20220;-39
2021/03/06 10:28:14;;;;;;;1.98;1.88;;;6.50;99.90;;;;;;5073380;28;20295;-39
2021/03/06 10:30:44;;;;;;;2.38;2.00;;;6.50;99.90;;;;;;5083175;28;20197;-38
2021/03/06 10:33:23;;;;;;;2.25;1.88;;;6.70;99.90;;;;;;5084483;28;20217;-39
2021/03/06 10:35:55;;;;;;;1.88;1.77;;;6.70;99.90;;;;;;5075421;28;20240;-39
2021/03/06 10:38:29;;;;;;;2.22;2.03;;;6.70;99.90;;;;;;5084496;28;20269;-39
2021/03/06 10:41:02;;;;;;;3.08;2.13;;;6.70;99.90;;;;;;5084058;28;20270;-39
2021/03/06 10:43:33;;;;;;;2.38;1.73;;;6.70;99.90;;;;;;5081769;28;20263;-39
2021/03/06 10:46:15;;;;;;;2.40;2.20;;;6.70;99.90;;;;;;5070341;28;20355;-38
2021/03/06 10:48:46;;;;;;;2.35;2.13;;;6.80;99.90;;;;;;5067869;28;20269;-39
2021/03/06 10:51:16;;;;;;;2.45;1.88;;;6.70;99.90;;;;;;5081284;28;20208;-39
2021/03/06 10:54:00;;;;;;;2.13;2.00;;;6.70;99.90;;;;;;5075021;28;20201;-38
2021/03/06 10:56:32;;;;;;;2.45;2.25;;;6.60;99.90;;;;;;5083682;28;20650;-38
2021/03/06 10:59:02;;;;;;;2.53;2.15;;;6.60;99.90;;;;;;5083801;28;20216;-38
2021/03/06 11:01:44;;;;;;;2.22;2.03;;;6.50;99.90;;;;;;5079602;28;20231;-38
2021/03/06 11:04:32;;;;;;;2.05;1.95;;;6.50;99.90;;;;;;5084402;28;20261;-38
2021/03/06 11:07:03;;;;;;;1.80;1.70;;;6.50;99.90;;;;;;5071802;28;20882;-38
2021/03/06 11:09:36;;;;;;;1.98;1.88;;;6.30;99.90;;;;;;5080693;28;20258;-38
2021/03/06 11:12:21;;;;;;;2.10;2.00;;;6.40;99.90;;;;;;5073833;28;20239;-38
2021/03/06 11:15:07;;;;;;;2.83;2.03;;;6.30;99.90;;;;;;5074395;28;20272;-39
2021/03/06 11:17:37;;;;;;;1.70;1.40;;;6.30;99.90;;;;;;5067041;28;20309;-38
2021/03/06 11:20:10;;;;;;;1.70;1.60;;;6.20;99.90;;;;;;5082924;28;20674;-38
2021/03/06 11:22:40;;;;;;;2.30;1.80;;;6.10;99.90;;;;;;5079712;28;20555;-39
2021/03/06 11:25:12;;;;;;;1.70;1.60;;;6.10;99.90;;;;;;5080170;28;20201;-39
2021/03/06 11:27:46;;;;;;;2.35;2.22;;;6.10;99.90;;;;;;5083620;28;20212;-39
2021/03/06 11:30:18;;;;;;;1.88;1.70;;;6.00;99.90;;;;;;5082106;28;20209;-39
2021/03/06 11:32:48;;;;;;;3.00;1.70;;;6.00;99.90;;;;;;5075091;28;20206;-39
2021/03/06 11:35:19;;;;;;;2.78;1.75;;;5.90;99.90;;;;;;5075576;28;20213;-39
2021/03/06 11:37:50;;;;;;;2.22;1.75;;;5.90;99.90;;;;;;5083765;28;20269;-38
2021/03/06 11:40:22;;;;;;;2.25;2.05;;;5.90;99.90;;;;;;5082961;28;20216;-39
2021/03/06 11:42:53;;;;;;;2.15;2.05;;;5.90;99.90;;;;;;5077146;28;20627;-38
2021/03/06 11:45:24;;;;;;;6.57;2.15;;;5.90;99.90;;;;;;5071933;28;20248;-39
2021/03/06 11:47:56;;;;;;;2.63;2.22;;;6.00;99.90;;;;;;5075746;28;20292;-39
2021/03/06 11:50:28;;;;;;;3.75;2.35;;;6.00;99.90;;;;;;5076116;28;20226;-38
2021/03/06 11:52:59;;;;;;;2.53;2.35;;;6.00;99.90;;;;;;5073864;28;20209;-38
2021/03/06 11:55:33;;;;;;;2.33;2.00;;;6.10;99.90;;;;;;5073612;28;20196;-39
2021/03/06 11:58:04;;;;;;;2.00;1.88;;;6.10;99.90;;;;;;5076163;28;20222;-39
2021/03/06 12:00:36;;;;;;;2.15;1.95;;;6.30;99.90;;;;;;5072070;28;20711;-39
2021/03/06 12:03:07;;;;;;;1.83;1.73;;;6.30;99.90;;;;;;5072099;28;20216;-38
2021/03/06 12:05:37;;;;;;;1.90;1.80;;;6.30;99.90;;;;;;5077144;28;20212;-38
2021/03/06 12:08:08;;;;;;;1.80;1.70;;;6.30;99.90;;;;;;5083194;28;20196;-38
2021/03/06 12:10:38;;;;;;;1.85;1.75;;;6.30;99.90;;;;;;5074808;28;20581;-38
2021/03/06 12:13:09;;;;;;;2.10;1.90;;;6.30;99.90;;;;;;5076049;28;20210;-39
2021/03/06 12:15:39;;;;;;;2.38;1.27;;;6.40;99.90;;;;;;5068836;28;20190;-38
2021/03/06 12:18:10;;;;;;;1.48;1.38;;;6.40;99.90;;;;;;5065228;28;20303;-39
2021/03/06 12:20:40;;;;;;;2.40;1.88;;;6.50;99.90;;;;;;5064078;28;20509;-38
2021/03/06 12:23:10;;;;;;;1.73;1.63;;;6.40;99.90;;;;;;5070446;28;20189;-36
2021/03/06 12:25:40;;;;;;;1.30;1.20;;;6.40;99.90;;;;;;5081812;28;20197;-38
2021/03/06 12:28:11;;;;;;;1.70;1.60;;;6.40;99.90;;;;;;5074496;28;20310;-38
2021/03/06 12:30:42;;;;;;;1.45;1.20;;;6.40;99.90;;;;;;5081013;28;20205;-38
2021/03/06 12:33:12;;;;;;;2.17;1.58;;;6.30;99.90;;;;;;5075459;28;20209;-38
2021/03/06 12:35:42;;;;;;;1.90;1.77;;;6.30;99.90;;;;;;5065925;28;20200;-38
2021/03/06 12:38:13;;;;;;;1.40;1.30;;;6.30;99.90;;;;;;5075564;28;20213;-38
2021/03/06 12:40:42;;;;;;;1.70;1.60;;;6.40;99.90;;;;;;5069422;28;20271;-38
2021/03/06 12:43:14;;;;;;;1.65;1.55;;;6.30;99.90;;;;;;5077729;28;20209;-38
2021/03/06 12:45:44;;;;;;;1.80;1.33;;;6.40;99.90;;;;;;5072025;28;20267;-38
2021/03/06 12:48:14;;;;;;;1.50;1.40;;;6.30;99.90;;;;;;5081872;28;20205;-38
2021/03/06 12:50:44;;;;;;;1.63;1.40;;;6.30;99.90;;;;;;5076041;28;21147;-38
2021/03/06 12:53:15;;;;;;;1.60;1.45;;;6.20;99.90;;;;;;5073514;28;20202;-38
2021/03/06 12:55:45;;;;;;;1.63;1.52;;;6.30;99.90;;;;;;5073171;28;21089;-38
2021/03/06 12:58:16;;;;;;;2.05;1.75;;;6.30;99.90;;;;;;5079380;28;20209;-38
2021/03/06 13:00:46;;;;;;;2.28;2.08;;;6.30;99.90;;;;;;5075625;28;20232;-38
2021/03/06 13:03:17;;;;;;;1.90;1.80;;;6.30;99.90;;;;;;5079213;28;20210;-38
2021/03/06 13:05:47;;;;;;;3.95;3.55;;;6.20;99.90;;;;;;5065957;28;20229;-38
2021/03/06 13:08:17;;;;;;;2.55;2.15;;;6.20;99.90;;;;;;5071301;28;20334;-38
2021/03/06 13:10:47;;;;;;;1.83;1.73;;;6.20;99.90;;;;;;5076550;28;20228;-38
2021/03/06 13:13:19;;;;;;;2.08;1.52;;;6.30;99.90;;;;;;5073443;28;20240;-38
2021/03/06 13:15:49;;;;;;;2.35;2.15;;;6.40;99.90;;;;;;5079761;28;20254;-38
2021/03/06 13:18:19;;;;;;;2.60;2.40;;;6.40;99.90;;;;;;5081564;28;20609;-38
2021/03/06 13:20:49;;;;;;;2.63;2.42;;;6.40;99.90;;;;;;5074597;28;20201;-38
2021/03/06 13:23:20;;;;;;;2.78;2.58;;;6.40;99.90;;;;;;5080797;28;20205;-38
2021/03/06 13:25:50;;;;;;;2.80;2.60;;;6.30;99.90;;;;;;5081377;28;20552;-38